createdAt,value
2018-10-05T00:00:22.910Z,965.36
2018-10-05T00:02:49.232Z,965.37
2018-10-05T00:05:15.551Z,965.35
2018-10-05T00:07:41.872Z,965.35
2018-10-05T00:10:08.510Z,965.41
2018-10-05T00:12:34.954Z,965.34
2018-10-05T00:15:01.266Z,965.29
2018-10-05T00:17:27.582Z,965.26
2018-10-05T00:19:53.899Z,965.25
2018-10-05T00:22:20.261Z,965.22
2018-10-05T00:24:46.580Z,965.19
2018-10-05T00:27:12.900Z,965.13
2018-10-05T00:29:39.250Z,965.11
2018-10-05T00:32:05.576Z,965.11
2018-10-05T00:34:31.938Z,965.09
2018-10-05T00:36:58.261Z,965.05
2018-10-05T00:39:24.607Z,965.04
2018-10-05T00:41:50.972Z,965.04
2018-10-05T00:44:17.322Z,965.08
2018-10-05T00:46:43.643Z,965.06
2018-10-05T00:49:10.007Z,965.15
2018-10-05T00:51:36.345Z,965.17
2018-10-05T00:54:02.665Z,965.25
2018-10-05T00:56:29.057Z,965.21
2018-10-05T00:58:55.377Z,965.18
2018-10-05T01:01:21.717Z,965.21
2018-10-05T01:03:48.083Z,965.14
2018-10-05T01:06:14.424Z,965.16
2018-10-05T01:08:40.770Z,965.11
2018-10-05T01:11:07.176Z,965.03
2018-10-05T01:13:33.520Z,965.08
2018-10-05T01:15:59.840Z,965.07
2018-10-05T01:18:26.210Z,965.10
2018-10-05T01:20:52.553Z,965.17
2018-10-05T01:23:18.908Z,965.17
2018-10-05T01:25:45.293Z,965.16
2018-10-05T01:28:11.640Z,965.14
2018-10-05T01:30:38.013Z,965.06
2018-10-05T01:33:04.380Z,965.14
2018-10-05T01:35:30.709Z,965.18
2018-10-05T01:37:57.029Z,965.13
2018-10-05T01:40:23.395Z,965.14
2018-10-05T01:42:49.737Z,965.13
2018-10-05T01:45:16.056Z,965.08
2018-10-05T01:47:42.458Z,965.10
2018-10-05T01:50:08.770Z,965.20
2018-10-05T01:52:35.124Z,965.21
2018-10-05T01:55:01.509Z,965.27
2018-10-05T01:57:27.852Z,965.28
2018-10-05T01:59:54.194Z,965.34
2018-10-05T02:02:20.577Z,965.32
2018-10-05T02:04:46.893Z,965.29
2018-10-05T02:07:13.233Z,965.16
2018-10-05T02:09:39.654Z,965.23
2018-10-05T02:12:05.972Z,965.24
2018-10-05T02:14:32.418Z,965.22
2018-10-05T02:16:58.786Z,965.20
2018-10-05T02:19:25.128Z,965.19
2018-10-05T02:21:51.440Z,965.21
2018-10-05T02:24:17.836Z,965.19
2018-10-05T02:26:44.190Z,965.36
2018-10-05T02:29:10.533Z,965.28
2018-10-05T02:31:36.910Z,965.31
2018-10-05T02:34:03.249Z,965.37
2018-10-05T02:36:29.589Z,965.38
2018-10-05T02:38:55.948Z,965.42
2018-10-05T02:41:22.269Z,965.44
2018-10-05T02:43:48.614Z,965.41
2018-10-05T02:46:15.005Z,965.39
2018-10-05T02:48:41.349Z,965.40
2018-10-05T02:51:07.690Z,965.39
2018-10-05T02:53:34.119Z,965.41
2018-10-05T02:56:00.439Z,965.41
2018-10-05T02:58:26.753Z,965.36
2018-10-05T03:00:53.120Z,965.40
2018-10-05T03:03:19.437Z,965.42
2018-10-05T03:05:45.754Z,965.47
2018-10-05T03:08:12.142Z,965.47
2018-10-05T03:10:38.458Z,965.43
2018-10-05T03:13:04.803Z,965.51
2018-10-05T03:15:31.203Z,965.45
2018-10-05T03:17:57.546Z,965.43
2018-10-05T03:20:23.862Z,965.40
2018-10-05T03:22:50.235Z,965.44
2018-10-05T03:25:16.576Z,965.45
2018-10-05T03:27:42.922Z,965.42
2018-10-05T03:30:09.270Z,965.43
2018-10-05T03:32:35.614Z,965.34
2018-10-05T03:35:02.051Z,965.40
2018-10-05T03:37:28.398Z,965.37
2018-10-05T03:39:54.716Z,965.53
2018-10-05T03:42:21.092Z,965.47
2018-10-05T03:44:47.418Z,965.49
2018-10-05T03:47:13.734Z,965.48
2018-10-05T03:49:40.175Z,965.50
2018-10-05T03:52:06.455Z,965.48
2018-10-05T03:54:32.775Z,965.50
2018-10-05T03:56:59.133Z,965.48
2018-10-05T03:59:25.478Z,965.45
2018-10-05T04:01:51.825Z,965.53
2018-10-05T04:04:18.143Z,965.50
2018-10-05T04:06:44.491Z,965.55
2018-10-05T04:09:10.817Z,965.61
2018-10-05T04:11:37.159Z,965.58
2018-10-05T04:14:03.551Z,965.60
2018-10-05T04:16:29.892Z,965.52
2018-10-05T04:18:56.238Z,965.52
2018-10-05T04:21:22.564Z,965.55
2018-10-05T04:23:48.884Z,965.57
2018-10-05T04:26:15.244Z,965.51
2018-10-05T04:28:41.565Z,965.46
2018-10-05T04:31:07.911Z,965.48
2018-10-05T04:33:34.266Z,965.45
2018-10-05T04:36:00.592Z,965.39
2018-10-05T04:38:26.913Z,965.44
2018-10-05T04:40:53.294Z,965.50
2018-10-05T04:43:19.617Z,965.53
2018-10-05T04:45:46.002Z,965.48
2018-10-05T04:48:12.329Z,965.60
2018-10-05T04:50:38.809Z,965.62
2018-10-05T04:53:05.151Z,965.64
2018-10-05T04:55:31.499Z,965.71
2018-10-05T04:57:57.843Z,965.77
2018-10-05T05:00:24.789Z,965.78
2018-10-05T05:02:51.174Z,965.79
2018-10-05T05:05:17.610Z,965.85
2018-10-05T05:07:43.955Z,965.88
2018-10-05T05:10:10.394Z,965.80
2018-10-05T05:12:36.744Z,965.88
2018-10-05T05:15:03.061Z,965.91
2018-10-05T05:17:29.410Z,965.87
2018-10-05T05:19:56.051Z,966.00
2018-10-05T05:22:22.372Z,965.98
2018-10-05T05:24:48.693Z,965.99
2018-10-05T05:27:15.228Z,966.04
2018-10-05T05:29:41.556Z,966.06
2018-10-05T05:32:07.876Z,966.01
2018-10-05T05:34:34.296Z,966.15
2018-10-05T05:37:00.749Z,966.19
2018-10-05T05:39:27.074Z,966.26
2018-10-05T05:41:53.431Z,966.33
2018-10-05T05:44:19.758Z,966.34
2018-10-05T05:46:46.134Z,966.31
2018-10-05T05:49:12.832Z,966.33
2018-10-05T05:51:39.159Z,966.32
2018-10-05T05:54:05.540Z,966.34
2018-10-05T05:56:31.888Z,966.37
2018-10-05T05:58:58.229Z,966.32
2018-10-05T06:01:24.548Z,966.36
2018-10-05T06:03:50.938Z,966.37
2018-10-05T06:06:17.278Z,966.35
2018-10-05T06:08:43.625Z,966.46
2018-10-05T06:11:09.988Z,966.49
2018-10-05T06:13:36.308Z,966.52
2018-10-05T06:16:02.724Z,966.55
2018-10-05T06:18:29.012Z,966.53
2018-10-05T06:20:55.353Z,966.48
2018-10-05T06:23:22.287Z,966.48
2018-10-05T06:25:48.603Z,966.40
2018-10-05T06:28:14.921Z,966.43
2018-10-05T06:30:41.357Z,966.43
2018-10-05T06:33:07.631Z,966.42
2018-10-05T06:35:33.956Z,966.36
2018-10-05T06:38:00.347Z,966.34
2018-10-05T06:40:26.698Z,966.28
2018-10-05T06:42:53.065Z,966.33
2018-10-05T06:45:19.390Z,966.41
2018-10-05T06:47:45.733Z,966.35
2018-10-05T06:50:12.118Z,966.34
2018-10-05T06:52:38.467Z,966.34
2018-10-05T06:55:04.813Z,966.30
2018-10-05T06:57:31.198Z,966.34
2018-10-05T06:59:57.523Z,966.31
2018-10-05T07:02:23.843Z,966.35
2018-10-05T07:04:50.248Z,966.40
2018-10-05T07:07:16.570Z,966.36
2018-10-05T07:09:42.914Z,966.36
2018-10-05T07:12:09.284Z,966.28
2018-10-05T07:14:35.634Z,966.20
2018-10-05T07:17:02.004Z,966.24
2018-10-05T07:19:28.343Z,966.25
2018-10-05T07:21:54.720Z,966.26
2018-10-05T07:24:21.122Z,966.32
2018-10-05T07:26:47.440Z,966.27
2018-10-05T07:29:13.761Z,966.24
2018-10-05T07:31:40.135Z,966.28
2018-10-05T07:34:06.481Z,966.27
2018-10-05T07:36:32.822Z,966.24
2018-10-05T07:38:59.184Z,966.31
2018-10-05T07:41:25.510Z,966.26
2018-10-05T07:43:51.837Z,966.25
2018-10-05T07:46:18.182Z,966.30
2018-10-05T07:48:44.539Z,966.29
2018-10-05T07:51:10.951Z,966.35
2018-10-05T07:53:37.293Z,966.33
2018-10-05T07:56:03.639Z,966.36
2018-10-05T07:58:30.005Z,966.28
2018-10-05T08:00:56.356Z,966.25
2018-10-05T08:03:22.682Z,966.22
2018-10-05T08:05:49.009Z,966.20
2018-10-05T08:08:15.421Z,966.20
2018-10-05T08:10:41.815Z,966.18
2018-10-05T08:13:08.162Z,966.10
2018-10-05T08:15:34.522Z,966.11
2018-10-05T08:18:00.919Z,966.15
2018-10-05T08:20:27.267Z,966.16
2018-10-05T08:22:53.714Z,966.11
2018-10-05T08:25:20.082Z,966.11
2018-10-05T08:27:46.682Z,966.10
2018-10-05T08:30:12.756Z,966.13
2018-10-05T08:32:39.107Z,966.08
2018-10-05T08:35:05.454Z,966.13
2018-10-05T08:37:31.835Z,966.12
2018-10-05T08:39:58.295Z,966.06
2018-10-05T08:42:24.492Z,965.98
2018-10-05T08:44:50.887Z,965.91
2018-10-05T08:47:17.242Z,965.94
2018-10-05T08:49:43.592Z,965.91
2018-10-05T08:52:10.012Z,965.93
2018-10-05T08:54:36.266Z,965.79
2018-10-05T08:57:02.661Z,965.80
2018-10-05T08:59:29.007Z,965.82
2018-10-05T09:01:55.330Z,965.81
2018-10-05T09:04:21.723Z,965.82
2018-10-05T09:06:48.076Z,965.78
2018-10-05T09:09:14.397Z,965.71
2018-10-05T09:11:40.741Z,965.80
2018-10-05T09:14:07.068Z,965.75
2018-10-05T09:16:33.431Z,965.73
2018-10-05T09:18:59.754Z,965.63
2018-10-05T09:21:26.171Z,965.67
2018-10-05T09:23:52.509Z,965.67
2018-10-05T09:26:18.835Z,965.54
2018-10-05T09:28:45.256Z,965.47
2018-10-05T09:31:11.577Z,965.42
2018-10-05T09:33:37.968Z,965.35
2018-10-05T09:36:04.356Z,965.36
2018-10-05T09:38:30.709Z,965.43
2018-10-05T09:40:57.071Z,965.40
2018-10-05T09:43:23.437Z,965.30
2018-10-05T09:45:49.789Z,965.34
2018-10-05T09:48:16.139Z,965.30
2018-10-05T09:50:42.532Z,965.20
2018-10-05T09:53:08.876Z,965.24
2018-10-05T09:55:35.232Z,965.24
2018-10-05T09:58:01.610Z,965.24
2018-10-05T10:00:27.947Z,965.14
2018-10-05T10:02:54.295Z,965.08
2018-10-05T10:05:20.684Z,965.11
2018-10-05T10:07:47.081Z,965.12
2018-10-05T10:10:13.419Z,965.09
2018-10-05T10:12:39.774Z,965.00
2018-10-05T10:15:06.120Z,965.02
2018-10-05T10:17:32.451Z,965.02
2018-10-05T10:19:58.819Z,964.99
2018-10-05T10:22:25.161Z,964.88
2018-10-05T10:24:51.485Z,964.82
2018-10-05T10:27:17.843Z,964.87
2018-10-05T10:29:44.191Z,964.71
2018-10-05T10:32:10.889Z,964.71
2018-10-05T10:34:37.314Z,964.62
2018-10-05T10:37:03.655Z,964.62
2018-10-05T10:39:30.047Z,964.59
2018-10-05T10:41:56.394Z,964.63
2018-10-05T10:44:22.739Z,964.54
2018-10-05T10:46:49.111Z,964.47
2018-10-05T10:49:15.460Z,964.46
2018-10-05T10:51:41.784Z,964.40
2018-10-05T10:54:08.172Z,964.35
2018-10-05T10:56:34.429Z,964.39
2018-10-05T10:59:00.822Z,964.29
2018-10-05T11:01:27.171Z,964.28
2018-10-05T11:03:53.541Z,964.24
2018-10-05T11:06:19.871Z,964.32
2018-10-05T11:08:46.213Z,964.11
2018-10-05T11:11:12.794Z,964.08
2018-10-05T11:13:39.041Z,964.03
2018-10-05T11:16:05.365Z,964.00
2018-10-05T11:18:31.762Z,964.08
2018-10-05T11:20:58.114Z,964.16
2018-10-05T11:23:24.464Z,964.06
2018-10-05T11:25:50.781Z,964.06
2018-10-05T11:28:17.116Z,964.00
2018-10-05T11:30:43.449Z,963.92
2018-10-05T11:33:09.769Z,964.00
2018-10-05T11:35:36.132Z,964.02
2018-10-05T11:38:02.457Z,963.96
2018-10-05T11:40:28.809Z,963.89
2018-10-05T11:42:55.312Z,963.87
2018-10-05T11:45:21.657Z,963.74
2018-10-05T11:47:48.010Z,963.84
2018-10-05T11:50:14.394Z,963.84
2018-10-05T11:52:40.758Z,963.81
2018-10-05T11:55:07.105Z,963.81
2018-10-05T11:57:33.493Z,963.75
2018-10-05T11:59:59.813Z,963.76
2018-10-05T12:02:26.215Z,963.79
2018-10-05T12:04:52.511Z,963.64
2018-10-05T12:07:18.859Z,963.68
2018-10-05T12:09:45.230Z,963.65
2018-10-05T12:12:11.552Z,963.72
2018-10-05T12:14:37.897Z,963.65
2018-10-05T12:17:04.257Z,963.60
2018-10-05T12:19:30.582Z,963.65
2018-10-05T12:21:56.901Z,963.65
2018-10-05T12:24:23.285Z,963.57
2018-10-05T12:26:49.630Z,963.55
2018-10-05T12:29:15.980Z,963.48
2018-10-05T12:31:42.478Z,963.45
2018-10-05T12:34:08.822Z,963.49
2018-10-05T12:36:35.147Z,963.48
2018-10-05T12:39:01.510Z,963.51
2018-10-05T12:41:27.854Z,963.43
2018-10-05T12:43:54.199Z,963.33
2018-10-05T12:46:20.583Z,963.29
2018-10-05T12:48:46.923Z,963.22
2018-10-05T12:51:13.263Z,963.19
2018-10-05T12:53:39.726Z,963.20
2018-10-05T12:56:06.073Z,963.17
2018-10-05T12:58:32.491Z,963.12
2018-10-05T13:00:58.837Z,963.22
2018-10-05T13:03:25.162Z,963.21
2018-10-05T13:05:51.535Z,963.05
2018-10-05T13:08:17.869Z,963.08
2018-10-05T13:10:44.220Z,963.20
2018-10-05T13:13:10.587Z,963.09
2018-10-05T13:15:36.930Z,963.07
2018-10-05T13:18:03.254Z,963.00
2018-10-05T13:20:29.624Z,962.91
2018-10-05T13:22:56.005Z,963.08
2018-10-05T13:25:22.332Z,963.06
2018-10-05T13:27:48.770Z,962.98
2018-10-05T13:30:15.091Z,963.03
2018-10-05T13:32:41.436Z,962.97
2018-10-05T13:35:07.764Z,962.89
2018-10-05T13:37:34.188Z,962.87
2018-10-05T13:40:00.570Z,963.00
2018-10-05T13:42:26.954Z,963.05
2018-10-05T13:44:53.314Z,962.96
2018-10-05T13:47:19.655Z,962.98
2018-10-05T13:49:46.003Z,962.81
2018-10-05T13:52:12.334Z,962.92
2018-10-05T13:54:38.687Z,962.91
2018-10-05T13:57:05.029Z,962.88
2018-10-05T13:59:31.355Z,962.97
2018-10-05T14:01:57.709Z,963.07
2018-10-05T14:04:24.057Z,963.01
2018-10-05T14:06:50.468Z,963.11
2018-10-05T14:09:16.767Z,962.85
2018-10-05T14:11:43.093Z,962.92
2018-10-05T14:14:09.460Z,962.87
2018-10-05T14:16:35.766Z,962.88
2018-10-05T14:19:02.121Z,962.85
2018-10-05T14:21:28.414Z,962.85
2018-10-05T14:23:54.736Z,962.75
2018-10-05T14:26:21.116Z,962.86
2018-10-05T14:28:47.452Z,962.82
2018-10-05T14:31:13.780Z,962.82
2018-10-05T14:33:40.171Z,962.93
2018-10-05T14:36:06.461Z,963.00
2018-10-05T14:38:32.784Z,962.91
2018-10-05T14:40:59.186Z,962.89
2018-10-05T14:43:25.523Z,962.87
2018-10-05T14:45:51.943Z,962.93
2018-10-05T14:48:18.253Z,962.86
2018-10-05T14:50:44.579Z,962.89
2018-10-05T14:53:10.921Z,963.06
2018-10-05T14:55:37.268Z,963.01
2018-10-05T14:58:03.607Z,963.04
2018-10-05T15:00:29.931Z,962.99
2018-10-05T15:02:56.252Z,962.92
2018-10-05T15:05:22.603Z,962.96
2018-10-05T15:07:48.940Z,963.12
2018-10-05T15:10:15.259Z,963.07
2018-10-05T15:12:41.660Z,963.00
2018-10-05T15:15:07.967Z,963.00
2018-10-05T15:17:34.297Z,963.04
2018-10-05T15:20:00.681Z,962.99
2018-10-05T15:22:27.028Z,963.01
2018-10-05T15:24:53.342Z,962.94
2018-10-05T15:27:19.698Z,963.10
2018-10-05T15:29:46.044Z,963.16
2018-10-05T15:32:12.358Z,963.21
2018-10-05T15:34:38.718Z,963.16
2018-10-05T15:37:05.338Z,963.22
2018-10-05T15:39:31.655Z,963.16
2018-10-05T15:41:58.009Z,963.14
2018-10-05T15:44:24.351Z,963.20
2018-10-05T15:46:50.670Z,963.14
2018-10-05T15:49:16.990Z,963.18
2018-10-05T15:51:43.346Z,963.20
2018-10-05T15:54:09.664Z,963.20
2018-10-05T15:56:35.986Z,963.23
2018-10-05T15:59:02.464Z,963.27
2018-10-05T16:01:28.731Z,963.30
2018-10-05T16:03:55.053Z,963.33
2018-10-05T16:06:21.434Z,963.27
2018-10-05T16:08:47.774Z,963.30
2018-10-05T16:11:14.114Z,963.32
2018-10-05T16:13:40.493Z,963.31
2018-10-05T16:16:06.837Z,963.28
2018-10-05T16:18:33.178Z,963.25
2018-10-05T16:20:59.620Z,963.24
2018-10-05T16:23:25.875Z,963.20
2018-10-05T16:25:52.217Z,963.28
2018-10-05T16:28:18.576Z,963.28
2018-10-05T16:30:44.895Z,963.30
2018-10-05T16:33:11.238Z,963.26
2018-10-05T16:35:37.603Z,963.33
2018-10-05T16:38:03.944Z,963.37
2018-10-05T16:40:30.284Z,963.40
2018-10-05T16:42:56.644Z,963.38
2018-10-05T16:45:22.985Z,963.37
2018-10-05T16:47:49.317Z,963.29
2018-10-05T16:50:15.691Z,963.37
2018-10-05T16:52:42.015Z,963.37
2018-10-05T16:55:08.357Z,963.42
2018-10-05T16:57:34.770Z,963.49
2018-10-05T17:00:01.126Z,963.45
2018-10-05T17:02:27.441Z,963.50
2018-10-05T17:04:53.803Z,963.54
2018-10-05T17:07:20.142Z,963.64
2018-10-05T17:09:46.460Z,963.69
2018-10-05T17:12:12.939Z,963.64
2018-10-05T17:14:39.173Z,963.64
2018-10-05T17:17:05.523Z,963.66
2018-10-05T17:19:31.946Z,963.74
2018-10-05T17:21:58.289Z,963.82
2018-10-05T17:24:24.635Z,963.72
2018-10-05T17:26:51.010Z,963.71
2018-10-05T17:29:17.339Z,963.68
2018-10-05T17:31:43.649Z,963.72
2018-10-05T17:34:10.138Z,963.69
2018-10-05T17:36:36.457Z,963.74
2018-10-05T17:39:02.799Z,963.74
2018-10-05T17:41:29.181Z,963.75
2018-10-05T17:43:55.521Z,963.73
2018-10-05T17:46:21.884Z,963.77
2018-10-05T17:48:48.204Z,963.73
2018-10-05T17:51:14.524Z,963.78
2018-10-05T17:53:40.844Z,963.84
2018-10-05T17:56:07.237Z,963.82
2018-10-05T17:58:33.542Z,963.81
2018-10-05T18:00:59.862Z,963.87
2018-10-05T18:03:26.180Z,963.87
2018-10-05T18:05:52.576Z,963.99
2018-10-05T18:08:18.978Z,963.98
2018-10-05T18:10:45.290Z,963.93
2018-10-05T18:13:11.658Z,963.94
2018-10-05T18:15:37.996Z,963.96
2018-10-05T18:18:04.319Z,963.94
2018-10-05T18:20:30.718Z,963.97
2018-10-05T18:22:57.042Z,963.87
2018-10-05T18:25:23.390Z,963.95
2018-10-05T18:27:49.775Z,963.94
2018-10-05T18:30:16.101Z,963.89
2018-10-05T18:32:42.448Z,963.96
2018-10-05T18:35:08.774Z,963.92
2018-10-05T18:37:35.097Z,963.89
2018-10-05T18:40:01.444Z,963.86
2018-10-05T18:42:28.133Z,963.84
2018-10-05T18:44:54.476Z,963.88
2018-10-05T18:47:20.894Z,963.85
2018-10-05T18:49:47.833Z,963.91
2018-10-05T18:52:14.177Z,963.96
2018-10-05T18:54:40.529Z,963.94
2018-10-05T18:57:06.920Z,963.94
2018-10-05T18:59:33.258Z,964.00
2018-10-05T19:02:00.810Z,963.95
2018-10-05T19:04:25.876Z,963.87
2018-10-05T19:06:52.436Z,963.94
2018-10-05T19:09:18.788Z,963.91
2018-10-05T19:11:45.119Z,963.92
2018-10-05T19:14:11.594Z,964.00
2018-10-05T19:16:37.916Z,964.02
2018-10-05T19:19:04.255Z,963.98
2018-10-05T19:21:30.593Z,964.01
2018-10-05T19:23:56.973Z,963.94
2018-10-05T19:26:23.439Z,963.93
2018-10-05T19:28:49.729Z,964.04
2018-10-05T19:31:16.004Z,964.05
2018-10-05T19:33:42.335Z,963.94
2018-10-05T19:36:08.784Z,964.01
2018-10-05T19:38:35.174Z,964.03
2018-10-05T19:41:03.062Z,963.99
2018-10-05T19:43:28.214Z,964.01
2018-10-05T19:45:54.534Z,964.00
2018-10-05T19:48:20.821Z,964.02
2018-10-05T19:50:47.152Z,963.96
2018-10-05T19:53:13.531Z,964.00
2018-10-05T19:55:39.843Z,964.05
2018-10-05T19:58:06.162Z,964.03
2018-10-05T20:00:32.482Z,964.00
2018-10-05T20:02:58.828Z,964.01
2018-10-05T20:05:25.145Z,964.01
2018-10-05T20:07:52.851Z,964.02
2018-10-05T20:10:17.988Z,964.09
2018-10-05T20:12:44.342Z,964.02
2018-10-05T20:15:10.727Z,964.11
2018-10-05T20:17:37.045Z,964.17
2018-10-05T20:20:03.361Z,964.11
2018-10-05T20:22:29.745Z,964.08
2018-10-05T20:24:56.086Z,964.09
2018-10-05T20:27:22.423Z,964.04
2018-10-05T20:29:48.782Z,964.01
2018-10-05T20:32:15.103Z,964.03
2018-10-05T20:34:41.414Z,964.00
2018-10-05T20:37:07.860Z,964.19
2018-10-05T20:39:34.090Z,964.07
2018-10-05T20:42:00.428Z,964.08
2018-10-05T20:44:26.880Z,964.07
2018-10-05T20:46:53.135Z,964.08
2018-10-05T20:49:19.460Z,964.07
2018-10-05T20:51:45.902Z,964.04
2018-10-05T20:54:12.233Z,964.11
2018-10-05T20:56:38.557Z,964.11
2018-10-05T20:59:04.926Z,964.12
2018-10-05T21:01:31.269Z,964.11
2018-10-05T21:03:57.591Z,964.03
2018-10-05T21:06:23.979Z,964.13
2018-10-05T21:08:50.324Z,964.11
2018-10-05T21:11:16.638Z,964.14
2018-10-05T21:13:43.097Z,964.13
2018-10-05T21:16:09.431Z,964.17
2018-10-05T21:18:35.776Z,964.20
2018-10-05T21:21:02.152Z,964.21
2018-10-05T21:23:28.518Z,964.23
2018-10-05T21:25:54.855Z,964.24
2018-10-05T21:28:21.235Z,964.29
2018-10-05T21:30:47.563Z,964.26
2018-10-05T21:33:13.967Z,964.23
2018-10-05T21:35:40.271Z,964.25
2018-10-05T21:38:06.590Z,964.27
2018-10-05T21:40:32.916Z,964.24
2018-10-05T21:42:59.299Z,964.27
2018-10-05T21:45:25.629Z,964.31
2018-10-05T21:47:51.952Z,964.35
2018-10-05T21:50:18.308Z,964.24
2018-10-05T21:52:44.626Z,964.16
2018-10-05T21:55:10.949Z,964.19
2018-10-05T21:57:37.325Z,964.13
2018-10-05T22:00:03.655Z,964.18
2018-10-05T22:02:29.974Z,964.19
2018-10-05T22:04:56.358Z,964.12
2018-10-05T22:07:22.707Z,964.18
2018-10-05T22:09:49.023Z,964.14
2018-10-05T22:12:15.343Z,964.13
2018-10-05T22:14:41.668Z,964.17
2018-10-05T22:17:08.346Z,964.17
2018-10-05T22:19:34.770Z,964.17
2018-10-05T22:22:01.074Z,964.09
2018-10-05T22:24:27.448Z,964.08
2018-10-05T22:26:53.768Z,964.08
2018-10-05T22:29:20.084Z,964.06
2018-10-05T22:31:46.475Z,964.08
2018-10-05T22:34:12.827Z,964.05
2018-10-05T22:36:39.175Z,964.06
2018-10-05T22:39:05.648Z,963.91
2018-10-05T22:41:31.982Z,964.03
2018-10-05T22:43:58.322Z,963.93
2018-10-05T22:46:24.672Z,963.99
2018-10-05T22:48:51.012Z,964.01
2018-10-05T22:51:17.461Z,963.97
2018-10-05T22:53:43.803Z,964.02
2018-10-05T22:56:10.186Z,964.09
2018-10-05T22:58:36.528Z,964.07
2018-10-05T23:01:02.868Z,964.10
2018-10-05T23:03:29.249Z,964.07
2018-10-05T23:05:55.595Z,964.06
2018-10-05T23:08:21.935Z,964.07
2018-10-05T23:10:48.313Z,963.99
2018-10-05T23:13:14.655Z,963.99
2018-10-05T23:15:40.997Z,964.04
2018-10-05T23:18:07.420Z,964.08
2018-10-05T23:20:33.764Z,964.13
2018-10-05T23:23:00.098Z,964.12
2018-10-05T23:25:26.819Z,964.14
2018-10-05T23:27:53.156Z,964.17
2018-10-05T23:30:19.500Z,964.16
2018-10-05T23:32:45.884Z,964.10
2018-10-05T23:35:12.225Z,964.01
2018-10-05T23:37:38.567Z,964.01
2018-10-05T23:40:04.944Z,963.94
2018-10-05T23:42:31.288Z,963.92
2018-10-05T23:44:57.639Z,963.94
2018-10-05T23:47:24.024Z,963.89
2018-10-05T23:49:50.365Z,963.87
2018-10-05T23:52:16.704Z,963.89
2018-10-05T23:54:43.107Z,963.76
2018-10-05T23:57:09.465Z,963.91
2018-10-05T23:59:35.817Z,963.93
